Time;durP1;ratioP1;P1;durP2;ratioP2;P2;SDS_P1;SDS_P2;PMS_P1;PMS_P2;Temp;Humidity;BMP_temperature;BMP_pressure;BME280_temperature;BME280_humidity;BME280_pressure;Samples;Min_cycle;Max_cycle;Signal;HPM_P1;HPM_P2
2021/09/18 00:01:12;;;;;;;;;;;;;;;10.76;53.87;100313.44;3523514;28;19931;-74
2021/09/18 00:02:52;;;;;;;;;;;;;;;10.72;53.96;100313.00;3511653;28;19924;-74
2021/09/18 00:04:32;;;;;;;;;;;;;;;10.71;54.05;100311.31;3523343;28;19924;-74
2021/09/18 00:06:13;;;;;;;;;;;;;;;10.69;54.11;100313.34;3525935;28;19962;-74
2021/09/18 00:07:53;;;;;;;;;;;;;;;10.68;53.93;100317.00;3526503;28;20026;-75
2021/09/18 00:09:34;;;;;;;;;;;;;;;10.66;54.08;100313.69;3525981;28;20014;-74
2021/09/18 00:11:14;;;;;;;;;;;;;;;10.65;54.16;100314.72;3526371;28;19927;-74
2021/09/18 00:12:55;;;;;;;;;;;;;;;10.65;54.24;100322.72;3526422;28;19923;-74
2021/09/18 00:14:39;;;;;;;;;;;;;;;10.63;54.15;100319.38;3526103;28;19955;-75
2021/09/18 00:16:19;;;;;;;;;;;;;;;10.61;54.33;100322.25;3525954;28;19981;-75
2021/09/18 00:18:00;;;;;;;;;;;;;;;10.57;54.13;100312.13;3526544;28;19923;-75
2021/09/18 00:19:41;;;;;;;;;;;;;;;10.57;54.28;100320.13;3510433;28;19924;-74
2021/09/18 00:21:22;;;;;;;;;;;;;;;10.56;54.38;100313.09;3508411;28;19919;-75
2021/09/18 00:23:03;;;;;;;;;;;;;;;10.54;54.44;100317.81;3523424;28;19931;-74
2021/09/18 00:24:43;;;;;;;;;;;;;;;10.53;54.56;100316.13;3525528;28;19919;-75
2021/09/18 00:26:24;;;;;;;;;;;;;;;10.52;54.42;100323.31;3510945;28;19971;-75
2021/09/18 00:28:04;;;;;;;;;;;;;;;10.52;54.50;100322.47;3522748;28;20455;-75
2021/09/18 00:29:45;;;;;;;;;;;;;;;10.51;54.40;100320.81;3525486;28;19944;-75
2021/09/18 00:31:26;;;;;;;;;;;;;;;10.48;54.52;100322.84;3525863;28;19945;-75
2021/09/18 00:33:06;;;;;;;;;;;;;;;10.47;54.60;100321.16;3526388;28;19967;-75
2021/09/18 00:34:47;;;;;;;;;;;;;;;10.47;54.59;100318.50;3525861;28;19927;-76
2021/09/18 00:36:27;;;;;;;;;;;;;;;10.47;54.36;100315.00;3497107;28;20011;-76
2021/09/18 00:38:08;;;;;;;;;;;;;;;10.45;54.59;100317.88;3505975;28;20032;-76
2021/09/18 00:39:48;;;;;;;;;;;;;;;10.42;54.90;100318.22;3521307;28;19915;-75
2021/09/18 00:41:29;;;;;;;;;;;;;;;10.40;54.65;100314.91;3485608;28;20019;-76
2021/09/18 00:43:11;;;;;;;;;;;;;;;10.36;54.82;100313.59;3506173;28;20303;-76
2021/09/18 00:44:51;;;;;;;;;;;;;;;10.33;54.97;100318.47;3511961;28;20035;-75
2021/09/18 00:46:32;;;;;;;;;;;;;;;10.31;54.87;100321.31;3511892;28;19924;-75
2021/09/18 00:48:13;;;;;;;;;;;;;;;10.29;54.86;100323.31;3524556;28;19957;-75
2021/09/18 00:49:53;;;;;;;;;;;;;;;10.27;54.98;100325.28;3527489;28;19931;-76
2021/09/18 00:51:34;;;;;;;;;;;;;;;10.27;54.89;100319.94;3528799;28;19916;-75
2021/09/18 00:53:14;;;;;;;;;;;;;;;10.25;54.87;100319.31;3499924;28;19931;-75
2021/09/18 00:54:55;;;;;;;;;;;;;;;10.23;55.11;100321.31;3508308;28;19924;-75
2021/09/18 00:56:36;;;;;;;;;;;;;;;10.20;55.15;100329.69;3523371;28;19976;-74
2021/09/18 00:58:16;;;;;;;;;;;;;;;10.18;55.10;100332.50;3525693;28;20354;-75
2021/09/18 01:00:03;;;;;;;;;;;;;;;10.17;55.02;100330.00;3525468;28;20294;-74
2021/09/18 01:01:44;;;;;;;;;;;;;;;10.17;55.20;100335.34;3526075;28;20370;-74
2021/09/18 01:03:24;;;;;;;;;;;;;;;10.17;55.21;100335.34;3510754;28;19923;-75
2021/09/18 01:05:05;;;;;;;;;;;;;;;10.13;55.08;100334.88;3522797;28;20368;-75
2021/09/18 01:06:45;;;;;;;;;;;;;;;10.10;55.39;100337.06;3525649;28;19923;-75
2021/09/18 01:08:27;;;;;;;;;;;;;;;10.09;55.27;100340.72;3510266;28;19949;-75
2021/09/18 01:10:08;;;;;;;;;;;;;;;10.09;55.19;100338.88;3522260;28;20306;-75
2021/09/18 01:11:48;;;;;;;;;;;;;;;10.08;55.18;100342.56;3525795;28;20030;-75
2021/09/18 01:13:29;;;;;;;;;;;;;;;10.07;55.32;100340.91;3525483;28;19930;-75
2021/09/18 01:15:09;;;;;;;;;;;;;;;10.05;55.11;100333.06;3525101;28;19924;-75
2021/09/18 01:16:50;;;;;;;;;;;;;;;10.08;55.42;100341.72;3510564;28;20391;-75
2021/09/18 01:18:31;;;;;;;;;;;;;;;10.05;55.33;100341.06;3522402;28;20606;-76
2021/09/18 01:20:11;;;;;;;;;;;;;;;10.02;55.50;100337.94;3509439;28;20346;-74
2021/09/18 01:21:53;;;;;;;;;;;;;;;9.99;55.44;100340.94;3507708;28;19931;-74
2021/09/18 01:23:33;;;;;;;;;;;;;;;9.97;55.57;100343.78;3507539;28;20537;-75
2021/09/18 01:25:14;;;;;;;;;;;;;;;9.90;55.40;100334.81;3522239;28;19924;-74
2021/09/18 01:26:55;;;;;;;;;;;;;;;9.97;55.53;100341.13;3525389;28;19924;-75
2021/09/18 01:28:36;;;;;;;;;;;;;;;9.98;55.68;100348.09;3524873;28;19923;-74
2021/09/18 01:30:20;;;;;;;;;;;;;;;9.97;55.43;100341.13;3524185;28;20387;-74
2021/09/18 01:32:01;;;;;;;;;;;;;;;9.97;55.72;100350.94;3524583;28;19930;-76
2021/09/18 01:33:41;;;;;;;;;;;;;;;9.93;55.77;100349.63;3525053;28;20391;-74
2021/09/18 01:35:22;;;;;;;;;;;;;;;9.92;55.70;100343.47;3525064;28;19978;-74
2021/09/18 01:37:02;;;;;;;;;;;;;;;9.92;55.68;100347.97;3524269;28;19924;-75
2021/09/18 01:38:43;;;;;;;;;;;;;;;9.90;55.80;100345.47;3524400;28;19923;-74
2021/09/18 01:40:25;;;;;;;;;;;;;;;9.89;55.82;100348.31;3524586;28;19955;-75
2021/09/18 01:42:05;;;;;;;;;;;;;;;9.87;55.89;100353.00;3525120;28;20386;-74
2021/09/18 01:43:46;;;;;;;;;;;;;;;9.85;56.01;100358.47;3524956;28;19923;-75
2021/09/18 01:45:27;;;;;;;;;;;;;;;9.84;55.93;100354.16;3525055;28;20026;-75
2021/09/18 01:47:08;;;;;;;;;;;;;;;9.76;55.96;100339.06;3525051;28;19931;-74
2021/09/18 01:48:48;;;;;;;;;;;;;;;9.81;56.28;100357.19;3524494;28;19916;-74
2021/09/18 01:50:32;;;;;;;;;;;;;;;9.78;56.22;100346.84;3524440;28;20348;-74
2021/09/18 01:52:47;;;;;;;;;;;;;;;9.76;56.16;100348.88;3509846;28;20476;-75
2021/09/18 01:54:20;;;;;;;;;;;;;;;9.75;56.18;100353.34;3520754;28;19923;-76
2021/09/18 01:56:00;;;;;;;;;;;;;;;9.75;56.18;100352.53;3525170;28;19916;-75
2021/09/18 01:57:45;;;;;;;;;;;;;;;9.74;56.25;100354.38;3524766;28;20367;-77
2021/09/18 01:59:25;;;;;;;;;;;;;;;9.72;56.17;100353.69;3525162;28;20053;-76
2021/09/18 02:01:06;;;;;;;;;;;;;;;9.71;56.22;100351.22;3495073;28;19978;-76
2021/09/18 02:02:47;;;;;;;;;;;;;;;9.69;56.21;100354.06;3519237;28;19931;-76
2021/09/18 02:04:27;;;;;;;;;;;;;;;9.71;56.14;100351.22;3526218;28;19983;-76
2021/09/18 02:06:08;;;;;;;;;;;;;;;9.72;56.23;100352.88;3531633;28;20310;-76
2021/09/18 02:07:48;;;;;;;;;;;;;;;9.71;56.27;100351.22;3530427;28;19924;-76
2021/09/18 02:09:29;;;;;;;;;;;;;;;9.69;56.15;100354.06;3524521;28;19928;-74
2021/09/18 02:11:09;;;;;;;;;;;;;;;9.68;56.36;100346.22;3523994;28;19923;-74
2021/09/18 02:12:50;;;;;;;;;;;;;;;9.69;56.22;100355.88;3509660;28;19923;-75
2021/09/18 02:14:30;;;;;;;;;;;;;;;9.69;56.21;100355.88;3521931;28;20401;-76
2021/09/18 02:16:11;;;;;;;;;;;;;;;9.67;56.40;100349.91;3524437;28;19924;-74
2021/09/18 02:17:52;;;;;;;;;;;;;;;9.64;56.34;100350.25;3524401;28;20363;-76
2021/09/18 02:19:32;;;;;;;;;;;;;;;9.64;56.36;100363.56;3524738;28;20014;-74
2021/09/18 02:21:13;;;;;;;;;;;;;;;9.61;56.30;100362.06;3524309;28;19965;-76
2021/09/18 02:22:54;;;;;;;;;;;;;;;9.59;56.35;100364.91;3525912;28;20390;-75
2021/09/18 02:24:34;;;;;;;;;;;;;;;9.59;56.28;100364.91;3525848;28;19924;-75
2021/09/18 02:26:15;;;;;;;;;;;;;;;9.57;56.19;100363.41;3526540;28;19923;-75
2021/09/18 02:27:56;;;;;;;;;;;;;;;9.57;56.37;100366.88;3524821;28;20064;-74
2021/09/18 02:29:36;;;;;;;;;;;;;;;9.54;56.21;100361.91;3524617;28;20353;-74
2021/09/18 02:31:17;;;;;;;;;;;;;;;9.53;56.33;100365.59;3508588;28;20326;-75
2021/09/18 02:32:57;;;;;;;;;;;;;;;9.53;56.58;100364.75;3523920;28;19931;-74
2021/09/18 02:34:38;;;;;;;;;;;;;;;9.50;56.49;100360.63;3526693;28;19931;-75
2021/09/18 02:36:19;;;;;;;;;;;;;;;9.50;56.53;100365.94;3525926;28;20377;-75
2021/09/18 02:38:00;;;;;;;;;;;;;;;9.48;56.49;100365.28;3526109;28;19923;-75
2021/09/18 02:39:40;;;;;;;;;;;;;;;9.48;56.40;100367.94;3526557;28;19923;-75
2021/09/18 02:41:21;;;;;;;;;;;;;;;9.47;56.40;100371.56;3527559;28;19923;-75
2021/09/18 02:43:01;;;;;;;;;;;;;;;9.47;56.68;100378.72;3528855;28;19955;-75
2021/09/18 02:44:42;;;;;;;;;;;;;;;9.45;56.43;100384.25;3528345;28;19930;-75
2021/09/18 02:46:22;;;;;;;;;;;;;;;9.44;56.66;100379.09;3524983;28;19930;-75
2021/09/18 02:48:03;;;;;;;;;;;;;;;9.42;56.80;100381.91;3523855;28;19977;-76
2021/09/18 02:49:43;;;;;;;;;;;;;;;9.40;56.65;100386.59;3524856;28;19923;-74
2021/09/18 02:51:24;;;;;;;;;;;;;;;9.39;56.94;100384.91;3523824;28;20094;-75
2021/09/18 02:53:04;;;;;;;;;;;;;;;9.38;56.69;100385.91;3524434;28;19924;-75
2021/09/18 02:54:45;;;;;;;;;;;;;;;9.35;56.54;100388.91;3524285;28;19949;-75
2021/09/18 02:56:26;;;;;;;;;;;;;;;9.33;56.91;100382.94;3509440;28;19924;-74
2021/09/18 02:58:06;;;;;;;;;;;;;;;9.31;56.80;100387.59;3521531;28;19923;-75
2021/09/18 02:59:47;;;;;;;;;;;;;;;9.29;56.84;100389.56;3511693;28;19947;-75
2021/09/18 03:01:27;;;;;;;;;;;;;;;9.26;56.76;100389.91;3520599;28;19924;-74
2021/09/18 03:03:08;;;;;;;;;;;;;;;9.25;56.83;100390.94;3509441;28;19924;-75
2021/09/18 03:04:49;;;;;;;;;;;;;;;9.23;56.93;100392.91;3521666;28;20026;-75
2021/09/18 03:06:29;;;;;;;;;;;;;;;9.22;56.88;100391.28;3524796;28;19923;-76
2021/09/18 03:08:11;;;;;;;;;;;;;;;9.21;56.86;100392.25;3524335;28;20314;-76
2021/09/18 03:09:51;;;;;;;;;;;;;;;9.22;56.98;100391.28;3524370;28;20018;-75
2021/09/18 03:11:32;;;;;;;;;;;;;;;9.20;56.86;100390.59;3523544;28;19924;-76
2021/09/18 03:13:12;;;;;;;;;;;;;;;9.20;57.06;100391.44;3524179;28;19924;-75
2021/09/18 03:14:53;;;;;;;;;;;;;;;9.18;56.88;100398.75;3524592;28;19924;-75
2021/09/18 03:16:34;;;;;;;;;;;;;;;9.18;57.04;100399.56;3495011;28;19932;-75
2021/09/18 03:18:15;;;;;;;;;;;;;;;9.18;56.85;100391.59;3518719;28;20014;-76
2021/09/18 03:19:56;;;;;;;;;;;;;;;9.18;56.88;100398.75;3524207;28;19924;-76
2021/09/18 03:21:36;;;;;;;;;;;;;;;9.18;56.75;100399.56;3508002;28;19976;-76
2021/09/18 03:23:17;;;;;;;;;;;;;;;9.20;57.00;100406.56;3521180;28;20028;-75
2021/09/18 03:24:57;;;;;;;;;;;;;;;9.20;56.75;100402.06;3524312;28;19985;-76
2021/09/18 03:26:38;;;;;;;;;;;;;;;9.20;56.95;100399.41;3509063;28;19924;-75
2021/09/18 03:28:18;;;;;;;;;;;;;;;9.20;56.84;100402.06;3521064;28;19964;-75
2021/09/18 03:29:59;;;;;;;;;;;;;;;9.21;56.64;100398.41;3524368;28;19985;-76
2021/09/18 03:31:40;;;;;;;;;;;;;;;9.22;56.78;100415.22;3523516;28;19930;-75
2021/09/18 03:33:20;;;;;;;;;;;;;;;9.22;56.73;100412.56;3509209;28;20020;-76
2021/09/18 03:35:01;;;;;;;;;;;;;;;9.23;56.87;100412.38;3521162;28;20374;-76
2021/09/18 03:36:42;;;;;;;;;;;;;;;9.24;56.69;100407.88;3524376;28;20022;-76
2021/09/18 03:38:22;;;;;;;;;;;;;;;9.24;56.74;100419.38;3524758;28;19924;-76
2021/09/18 03:40:03;;;;;;;;;;;;;;;9.26;56.60;100414.69;3524663;28;19927;-76
2021/09/18 03:41:44;;;;;;;;;;;;;;;9.27;56.74;100418.19;3523634;28;19943;-75
2021/09/18 03:43:24;;;;;;;;;;;;;;;9.29;56.55;100416.19;3524924;28;19923;-75
2021/09/18 03:45:05;;;;;;;;;;;;;;;9.31;56.57;100419.50;3524738;28;19923;-76
2021/09/18 03:46:46;;;;;;;;;;;;;;;9.31;56.75;100420.31;3509249;28;19931;-76
2021/09/18 03:48:26;;;;;;;;;;;;;;;9.33;56.66;100423.66;3521605;28;19945;-76
2021/09/18 03:50:07;;;;;;;;;;;;;;;9.33;56.50;100425.50;3509896;28;19931;-75
2021/09/18 03:51:48;;;;;;;;;;;;;;;9.35;56.67;100420.84;3520411;28;19965;-76
2021/09/18 03:53:28;;;;;;;;;;;;;;;9.36;56.49;100427.81;3524114;28;19923;-76
2021/09/18 03:55:09;;;;;;;;;;;;;;;9.36;56.67;100427.81;3524662;28;20015;-76
2021/09/18 03:56:50;;;;;;;;;;;;;;;9.38;56.45;100433.81;3522951;28;19932;-76
2021/09/18 03:58:30;;;;;;;;;;;;;;;9.41;56.50;100429.97;3524770;28;20018;-76
2021/09/18 04:00:11;;;;;;;;;;;;;;;9.44;56.32;100433.13;3525636;28;20302;-77
2021/09/18 04:01:52;;;;;;;;;;;;;;;9.46;56.51;100428.47;3527596;28;19924;-77
2021/09/18 04:03:32;;;;;;;;;;;;;;;9.51;56.38;100435.94;3527685;28;19919;-76
2021/09/18 04:05:13;;;;;;;;;;;;;;;9.54;56.32;100431.09;3527625;28;19928;-76
2021/09/18 04:06:53;;;;;;;;;;;;;;;9.59;56.08;100436.75;3527192;28;19927;-75
2021/09/18 04:08:34;;;;;;;;;;;;;;;9.67;55.84;100429.75;3526895;28;19923;-75
2021/09/18 04:10:14;;;;;;;;;;;;;;;9.69;55.95;100433.91;3526889;28;19927;-75
2021/09/18 04:11:55;;;;;;;;;;;;;;;9.74;56.08;100438.72;3527511;28;19924;-75
2021/09/18 04:13:35;;;;;;;;;;;;;;;9.79;55.87;100433.72;3527020;28;19972;-75
2021/09/18 04:15:16;;;;;;;;;;;;;;;9.84;55.76;100444.69;3527056;28;20232;-75
2021/09/18 04:16:56;;;;;;;;;;;;;;;9.88;55.61;100445.16;3527135;28;19984;-75
2021/09/18 04:18:37;;;;;;;;;;;;;;;9.89;55.52;100439.69;3526576;28;19924;-75
2021/09/18 04:20:17;;;;;;;;;;;;;;;9.92;55.48;100446.50;3526119;28;20374;-75
2021/09/18 04:21:58;;;;;;;;;;;;;;;9.94;55.34;100447.97;3527561;28;20018;-74
2021/09/18 04:23:38;;;;;;;;;;;;;;;9.97;55.33;100444.16;3527014;28;20287;-75
2021/09/18 04:25:19;;;;;;;;;;;;;;;10.00;55.39;100447.28;3527118;28;19930;-75
2021/09/18 04:26:59;;;;;;;;;;;;;;;10.04;55.19;100453.09;3527150;28;19916;-76
2021/09/18 04:28:40;;;;;;;;;;;;;;;10.08;55.10;100450.94;3526059;28;19927;-75
2021/09/18 04:30:21;;;;;;;;;;;;;;;10.13;55.14;100456.56;3526286;28;19920;-76
2021/09/18 04:32:01;;;;;;;;;;;;;;;10.15;55.04;100449.25;3511616;28;19950;-76
2021/09/18 04:33:42;;;;;;;;;;;;;;;10.14;55.02;100447.56;3523358;28;20059;-76
2021/09/18 04:35:22;;;;;;;;;;;;;;;10.15;54.99;100447.41;3525932;28;20383;-76
2021/09/18 04:37:03;;;;;;;;;;;;;;;10.18;55.04;100448.88;3525749;28;19930;-75
2021/09/18 04:38:43;;;;;;;;;;;;;;;10.23;54.80;100447.34;3526245;28;19923;-76
2021/09/18 04:40:24;;;;;;;;;;;;;;;10.31;54.81;100454.50;3525748;28;19923;-75
2021/09/18 04:42:04;;;;;;;;;;;;;;;10.37;54.76;100447.66;3526402;28;19923;-75
2021/09/18 04:43:45;;;;;;;;;;;;;;;10.42;54.72;100448.78;3525883;28;19924;-76
2021/09/18 04:45:25;;;;;;;;;;;;;;;10.50;54.51;100449.75;3525213;28;19931;-75
2021/09/18 04:47:06;;;;;;;;;;;;;;;10.56;54.44;100444.56;3525802;28;19973;-76
2021/09/18 04:48:46;;;;;;;;;;;;;;;10.61;54.37;100452.00;3525996;28;19923;-75
2021/09/18 04:50:27;;;;;;;;;;;;;;;10.66;54.22;100452.31;3526022;28;20086;-76
2021/09/18 04:52:08;;;;;;;;;;;;;;;10.69;54.18;100441.31;3527882;28;19977;-76
2021/09/18 04:53:48;;;;;;;;;;;;;;;10.74;54.22;100443.44;3528403;28;19924;-76
2021/09/18 04:55:31;;;;;;;;;;;;;;;10.77;54.12;100437.78;3527579;28;19928;-76
2021/09/18 04:57:11;;;;;;;;;;;;;;;10.79;54.09;100447.25;3526024;28;19931;-76
2021/09/18 04:58:52;;;;;;;;;;;;;;;10.85;53.98;100443.88;3526247;28;19924;-75
2021/09/18 05:00:32;;;;;;;;;;;;;;;10.91;53.89;100447.66;3520986;28;19916;-76
2021/09/18 05:02:13;;;;;;;;;;;;;;;11.00;53.81;100449.25;3520213;28;19930;-76
2021/09/18 05:03:53;;;;;;;;;;;;;;;11.07;53.72;100438.69;3526545;28;19967;-76
2021/09/18 05:05:34;;;;;;;;;;;;;;;11.14;53.51;100439.63;3526386;28;20336;-76
2021/09/18 05:07:14;;;;;;;;;;;;;;;11.19;53.43;100442.59;3526251;28;20306;-76
2021/09/18 05:08:55;;;;;;;;;;;;;;;11.22;53.20;100446.75;3526355;28;19915;-76
2021/09/18 05:10:35;;;;;;;;;;;;;;;11.25;53.29;100449.06;3522081;28;19931;-75
2021/09/18 05:12:16;;;;;;;;;;;;;;;11.29;53.33;100440.50;3526187;28;20401;-76
2021/09/18 05:13:57;;;;;;;;;;;;;;;11.31;53.23;100435.81;3526206;28;20020;-75
2021/09/18 05:15:38;;;;;;;;;;;;;;;11.35;53.18;100442.44;3526052;28;19961;-76
2021/09/18 05:17:18;;;;;;;;;;;;;;;11.43;53.13;100438.03;3525687;28;19931;-76
2021/09/18 05:18:59;;;;;;;;;;;;;;;11.50;52.99;100433.66;3525023;28;20417;-75
2021/09/18 05:20:39;;;;;;;;;;;;;;;11.57;52.81;100439.91;3525116;28;20033;-75
2021/09/18 05:22:20;;;;;;;;;;;;;;;11.64;52.63;100442.66;3525155;28;19923;-75
2021/09/18 05:24:00;;;;;;;;;;;;;;;11.67;52.61;100443.16;3525797;28;19924;-75
2021/09/18 05:25:41;;;;;;;;;;;;;;;11.73;52.37;100439.75;3510318;28;19924;-75
2021/09/18 05:27:21;;;;;;;;;;;;;;;11.82;52.36;100437.78;3522778;28;19968;-74
2021/09/18 05:29:02;;;;;;;;;;;;;;;11.92;52.12;100443.72;3525175;28;20420;-74
2021/09/18 05:30:42;;;;;;;;;;;;;;;12.03;51.90;100444.28;3525152;28;20354;-75
2021/09/18 05:32:23;;;;;;;;;;;;;;;12.11;51.85;100447.69;3525073;28;19923;-75
2021/09/18 05:34:03;;;;;;;;;;;;;;;12.23;51.65;100446.19;3525477;28;20413;-75
2021/09/18 05:35:44;;;;;;;;;;;;;;;12.40;51.49;100448.66;3524688;28;19960;-74
2021/09/18 05:37:24;;;;;;;;;;;;;;;12.59;51.13;100456.06;3525293;28;19928;-73
2021/09/18 05:39:05;;;;;;;;;;;;;;;12.78;50.90;100459.16;3525026;28;19924;-74
2021/09/18 05:40:46;;;;;;;;;;;;;;;12.94;50.66;100453.56;3521686;28;19930;-75
2021/09/18 05:42:26;;;;;;;;;;;;;;;13.08;50.19;100452.66;3521677;28;20433;-73
2021/09/18 05:44:07;;;;;;;;;;;;;;;13.24;50.02;100458.75;3510367;28;20404;-74
2021/09/18 05:45:47;;;;;;;;;;;;;;;13.46;49.87;100462.28;3522276;28;20383;-73
2021/09/18 05:47:28;;;;;;;;;;;;;;;13.67;49.37;100464.06;3525181;28;19930;-74
2021/09/18 05:49:09;;;;;;;;;;;;;;;13.89;49.12;100462.97;3495763;28;19932;-74
2021/09/18 05:50:50;;;;;;;;;;;;;;;14.10;48.70;100458.56;3519782;28;20314;-74
2021/09/18 05:52:32;;;;;;;;;;;;;;;14.32;48.46;100468.13;3525159;28;19963;-74
2021/09/18 05:54:13;;;;;;;;;;;;;;;14.52;48.06;100467.41;3524974;28;20291;-74
2021/09/18 05:55:53;;;;;;;;;;;;;;;14.73;47.48;100469.13;3525108;28;19965;-74
2021/09/18 05:57:34;;;;;;;;;;;;;;;14.87;47.08;100470.84;3524835;28;19924;-74
2021/09/18 05:59:14;;;;;;;;;;;;;;;14.99;46.58;100468.38;3523730;28;19931;-73
2021/09/18 06:00:56;;;;;;;;;;;;;;;15.09;46.82;100470.66;3523720;28;19915;-73
2021/09/18 06:02:36;;;;;;;;;;;;;;;15.17;46.75;100467.78;3523186;28;20694;-75
2021/09/18 06:04:17;;;;;;;;;;;;;;;15.27;46.72;100469.00;3524629;28;19976;-75
2021/09/18 06:05:57;;;;;;;;;;;;;;;15.37;46.16;100473.16;3524521;28;19931;-75
2021/09/18 06:07:38;;;;;;;;;;;;;;;15.35;46.18;100464.47;3525014;28;19930;-75
2021/09/18 06:09:18;;;;;;;;;;;;;;;15.34;46.17;100468.19;3524774;28;20014;-75
2021/09/18 06:10:59;;;;;;;;;;;;;;;15.48;46.13;100462.59;3520899;28;20431;-75
2021/09/18 06:12:39;;;;;;;;;;;;;;;15.70;45.78;100462.41;3524539;28;19922;-75
2021/09/18 06:14:20;;;;;;;;;;;;;;;15.95;45.22;100459.88;3524229;28;19924;-76
2021/09/18 06:16:00;;;;;;;;;;;;;;;16.21;44.69;100460.81;3522640;28;20014;-74
2021/09/18 06:17:41;;;;;;;;;;;;;;;16.39;44.96;100463.66;3522625;28;20014;-74
2021/09/18 06:19:22;;;;;;;;;;;;;;;16.60;43.87;100465.22;3513298;28;20394;-75
2021/09/18 06:21:06;;;;;;;;;;;;;;;16.76;44.08;100459.31;3522223;28;19930;-75
2021/09/18 06:22:46;;;;;;;;;;;;;;;16.92;44.08;100460.72;3522408;28;20287;-75
2021/09/18 06:24:28;;;;;;;;;;;;;;;17.06;44.03;100474.09;3524171;28;19931;-75
2021/09/18 06:26:09;;;;;;;;;;;;;;;17.22;44.00;100463.59;3523637;28;19923;-75
2021/09/18 06:27:49;;;;;;;;;;;;;;;17.44;43.09;100468.59;3508975;28;20430;-75
2021/09/18 06:29:30;;;;;;;;;;;;;;;17.73;43.05;100460.88;3505428;28;20016;-76
2021/09/18 06:31:11;;;;;;;;;;;;;;;17.96;42.35;100462.94;3516260;28;20020;-75
2021/09/18 06:32:51;;;;;;;;;;;;;;;18.15;42.75;100461.91;3512025;28;19928;-75
2021/09/18 06:34:32;;;;;;;;;;;;;;;18.32;42.35;100462.13;3523895;28;20352;-75
2021/09/18 06:36:12;;;;;;;;;;;;;;;18.50;41.59;100461.28;3523830;28;19928;-74
2021/09/18 06:37:53;;;;;;;;;;;;;;;18.68;41.79;100466.63;3519621;28;19924;-74
2021/09/18 06:39:33;;;;;;;;;;;;;;;18.76;41.33;100456.59;3515140;28;19924;-74
2021/09/18 06:41:17;;;;;;;;;;;;;;;18.90;40.82;100460.75;3510314;28;20311;-74
2021/09/18 06:42:58;;;;;;;;;;;;;;;19.13;41.08;100468.09;3501684;28;19970;-75
2021/09/18 06:44:41;;;;;;;;;;;;;;;19.40;40.90;100469.31;3516618;28;20349;-75
2021/09/18 06:46:22;;;;;;;;;;;;;;;19.65;40.30;100467.47;3512768;28;19931;-75
2021/09/18 06:48:03;;;;;;;;;;;;;;;19.85;39.33;100459.00;3523271;28;19930;-75
2021/09/18 06:49:43;;;;;;;;;;;;;;;20.02;39.03;100466.16;3520485;28;19923;-75
2021/09/18 06:51:24;;;;;;;;;;;;;;;20.17;39.06;100462.94;3524255;28;19959;-75
2021/09/18 06:53:05;;;;;;;;;;;;;;;20.32;38.62;100467.03;3524009;28;19928;-75
2021/09/18 06:54:46;;;;;;;;;;;;;;;20.45;38.24;100470.28;3518451;28;20043;-75
2021/09/18 06:56:27;;;;;;;;;;;;;;;20.63;37.76;100469.31;3510528;28;19924;-76
2021/09/18 06:58:08;;;;;;;;;;;;;;;20.79;36.02;100465.00;3517984;28;19988;-74
2021/09/18 06:59:48;;;;;;;;;;;;;;;20.91;37.42;100468.47;3504646;28;19973;-73
2021/09/18 07:01:30;;;;;;;;;;;;;;;21.17;36.51;100466.22;3520952;28;19924;-73
2021/09/18 07:03:11;;;;;;;;;;;;;;;21.44;36.10;100473.72;3521783;28;20430;-74
2021/09/18 07:04:51;;;;;;;;;;;;;;;21.70;36.43;100473.03;3523222;28;19935;-74
2021/09/18 07:06:32;;;;;;;;;;;;;;;21.92;35.44;100472.25;3520261;28;19924;-74
2021/09/18 07:08:12;;;;;;;;;;;;;;;22.14;35.10;100464.94;3516891;28;20432;-77
2021/09/18 07:09:53;;;;;;;;;;;;;;;22.38;34.69;100462.00;3522087;28;20003;-75
2021/09/18 07:11:33;;;;;;;;;;;;;;;22.57;34.52;100465.22;3518461;28;20059;-75
2021/09/18 07:13:14;;;;;;;;;;;;;;;22.73;33.77;100466.19;3517794;28;19930;-77
2021/09/18 07:14:55;;;;;;;;;;;;;;;22.79;33.96;100451.56;3518985;28;19924;-75
2021/09/18 07:16:40;;;;;;;;;;;;;;;22.84;33.83;100465.22;3506125;28;19924;-75
2021/09/18 07:18:21;;;;;;;;;;;;;;;22.90;33.47;100455.22;3516667;28;20019;-75
2021/09/18 07:20:04;;;;;;;;;;;;;;;22.95;33.44;100466.97;3516058;28;19955;-75
2021/09/18 07:21:45;;;;;;;;;;;;;;;22.98;33.33;100466.47;3515617;28;19920;-75
2021/09/18 07:23:26;;;;;;;;;;;;;;;22.93;33.21;100468.31;3516774;28;19923;-75
2021/09/18 07:25:08;;;;;;;;;;;;;;;22.85;32.32;100464.16;3521420;28;19923;-75
2021/09/18 07:26:49;;;;;;;;;;;;;;;22.69;32.77;100462.34;3499029;28;20395;-75
2021/09/18 07:28:34;;;;;;;;;;;;;;;22.53;32.89;100466.78;3512006;28;19920;-75
2021/09/18 07:30:14;;;;;;;;;;;;;;;22.34;33.52;100458.16;3519579;28;19924;-76
2021/09/18 07:31:55;;;;;;;;;;;;;;;22.22;33.22;100463.72;3520325;28;19991;-76
2021/09/18 07:33:36;;;;;;;;;;;;;;;22.15;34.02;100461.16;3499965;28;19924;-76
2021/09/18 07:35:17;;;;;;;;;;;;;;;21.86;32.94;100451.53;3515792;28;19938;-76
2021/09/18 07:36:58;;;;;;;;;;;;;;;21.70;33.07;100464.88;3515415;28;19977;-75
2021/09/18 07:38:38;;;;;;;;;;;;;;;21.54;33.75;100449.47;3517075;28;19951;-75
2021/09/18 07:40:19;;;;;;;;;;;;;;;21.37;32.97;100443.19;3518554;28;19934;-76
2021/09/18 07:42:00;;;;;;;;;;;;;;;21.37;33.40;100445.91;3492308;28;19933;-75
2021/09/18 07:43:41;;;;;;;;;;;;;;;21.47;33.45;100460.47;3513519;28;19924;-73
2021/09/18 07:45:21;;;;;;;;;;;;;;;21.60;33.37;100451.16;3503319;28;19924;-75
2021/09/18 07:47:03;;;;;;;;;;;;;;;21.65;33.17;100450.44;3515665;28;19976;-75
2021/09/18 07:48:43;;;;;;;;;;;;;;;21.84;32.85;100450.97;3504496;28;20018;-74
2021/09/18 07:50:24;;;;;;;;;;;;;;;22.23;32.09;100442.81;3517452;28;19927;-73
2021/09/18 07:52:05;;;;;;;;;;;;;;;22.73;32.19;100444.47;3521255;28;19927;-76
2021/09/18 07:53:45;;;;;;;;;;;;;;;23.24;32.19;100443.03;3523054;28;19988;-75
2021/09/18 07:55:26;;;;;;;;;;;;;;;23.75;31.06;100450.78;3526018;28;20010;-75
2021/09/18 07:57:07;;;;;;;;;;;;;;;24.25;29.91;100437.66;3524463;28;19924;-75
2021/09/18 07:58:47;;;;;;;;;;;;;;;24.61;29.75;100444.06;3523919;28;19939;-74
2021/09/18 08:00:28;;;;;;;;;;;;;;;25.01;29.92;100440.59;3525691;28;19955;-75
2021/09/18 08:02:09;;;;;;;;;;;;;;;25.40;29.73;100441.94;3522274;28;20007;-74
2021/09/18 08:03:49;;;;;;;;;;;;;;;25.68;28.91;100454.19;3521207;28;19923;-75
2021/09/18 08:05:30;;;;;;;;;;;;;;;25.87;29.13;100443.53;3524908;28;19924;-74
2021/09/18 08:07:10;;;;;;;;;;;;;;;26.05;27.77;100440.19;3522813;28;19930;-74
2021/09/18 08:08:51;;;;;;;;;;;;;;;26.11;28.50;100446.44;3524075;28;19928;-75
2021/09/18 08:10:34;;;;;;;;;;;;;;;26.23;29.54;100444.22;3520062;28;19985;-74
2021/09/18 08:12:14;;;;;;;;;;;;;;;26.30;29.36;100450.16;3509953;28;20351;-75
2021/09/18 08:13:57;;;;;;;;;;;;;;;26.28;28.11;100446.06;3518549;28;19934;-74
2021/09/18 08:15:37;;;;;;;;;;;;;;;26.26;28.77;100442.81;3525678;28;19928;-75
2021/09/18 08:17:18;;;;;;;;;;;;;;;26.25;28.91;100450.19;3526228;28;19978;-75
2021/09/18 08:18:59;;;;;;;;;;;;;;;26.26;28.81;100449.09;3525342;28;19927;-74
2021/09/18 08:20:39;;;;;;;;;;;;;;;26.28;28.82;100440.59;3510927;28;19924;-74
2021/09/18 08:22:20;;;;;;;;;;;;;;;26.11;28.85;100452.72;3523101;28;19939;-75
2021/09/18 08:24:00;;;;;;;;;;;;;;;26.00;28.67;100445.66;3524515;28;19931;-75
2021/09/18 08:25:41;;;;;;;;;;;;;;;26.18;28.18;100438.75;3508466;28;19931;-75
2021/09/18 08:27:21;;;;;;;;;;;;;;;26.53;28.28;100453.38;3522807;28;19927;-74
2021/09/18 08:29:02;;;;;;;;;;;;;;;26.90;27.54;100447.38;3523330;28;19928;-76
2021/09/18 08:30:42;;;;;;;;;;;;;;;27.25;26.61;100442.75;3524443;28;20379;-75
2021/09/18 08:32:23;;;;;;;;;;;;;;;27.59;26.95;100441.88;3511398;28;19962;-75
2021/09/18 08:34:03;;;;;;;;;;;;;;;27.65;26.10;100450.84;3506649;28;19938;-74
2021/09/18 08:35:44;;;;;;;;;;;;;;;27.43;25.87;100451.34;3519850;28;19931;-74
2021/09/18 08:37:24;;;;;;;;;;;;;;;27.43;27.13;100448.63;3522692;28;19927;-74
2021/09/18 08:39:05;;;;;;;;;;;;;;;27.54;26.33;100441.94;3524579;28;19923;-74
2021/09/18 08:40:46;;;;;;;;;;;;;;;27.40;26.31;100444.53;3525241;28;19927;-74